Time;durP1;ratioP1;P1;durP2;ratioP2;P2;SDS_P1;SDS_P2;PMS_P1;PMS_P2;Temp;Humidity;BMP_temperature;BMP_pressure;BME280_temperature;BME280_humidity;BME280_pressure;Samples;Min_cycle;Max_cycle;Signal;HPM_P1;HPM_P2
2022/09/26 00:01:38;;;;;;;;;;;;;;;;;;5031050;28;20028;-57
2022/09/26 00:04:06;;;;;;;;;;;;;;;;;;5031901;28;19913;-57
2022/09/26 00:06:31;;;;;;;;;;;;;;;;;;5032474;28;19955;-58
2022/09/26 00:08:57;;;;;;;;;;;;;;;;;;5032252;28;20351;-57
2022/09/26 00:11:24;;;;;;;;;;;;;;;;;;5031406;28;19913;-57
2022/09/26 00:13:51;;;;;;;;;;;;;;;;;;5031733;28;19960;-58
2022/09/26 00:16:16;;;;;;;;;;;;;;;;;;5031258;28;20413;-57
2022/09/26 00:18:41;;;;;;;;;;;;;;;;;;5031705;28;19941;-58
2022/09/26 00:21:11;;;;;;;;;;;;;;;;;;5031751;28;19920;-57
2022/09/26 00:23:37;;;;;;;;;;;;;;;;;;5034440;28;19913;-57
2022/09/26 00:26:02;;;;;;;;;;;;;;;;;;5031042;28;19994;-57
2022/09/26 00:28:28;;;;;;;;;;;;;;;;;;5035392;28;19912;-57
2022/09/26 00:30:53;;;;;;;;;;;;;;;;;;5032223;28;19921;-57
2022/09/26 00:33:19;;;;;;;;;;;;;;;;;;5030114;28;19913;-57
2022/09/26 00:35:51;;;;;;;;;;;;;;;;;;5030965;28;20019;-57
2022/09/26 00:38:16;;;;;;;;;;;;;;;;;;5029902;28;19913;-57
2022/09/26 00:40:41;;;;;;;;;;;;;;;;;;5031430;28;19920;-57
2022/09/26 00:43:26;;;;;;;;;;;;;;;;;;5035041;28;20276;-57
2022/09/26 00:45:51;;;;;;;;;;;;;;;;;;5031235;28;20023;-57
2022/09/26 00:48:17;;;;;;;;;;;;;;;;;;5031335;28;20015;-57
2022/09/26 00:50:42;;;;;;;;;;;;;;;;;;5030945;28;20317;-57
2022/09/26 00:53:13;;;;;;;;;;;;;;;;;;5030254;28;19913;-58
2022/09/26 00:55:41;;;;;;;;;;;;;;;;;;5027749;28;19913;-57
2022/09/26 00:58:09;;;;;;;;;;;;;;;;;;5031043;28;19945;-57
2022/09/26 01:00:35;;;;;;;;;;;;;;;;;;5031190;28;19913;-57
2022/09/26 01:03:00;;;;;;;;;;;;;;;;;;5029709;28;20287;-58
2022/09/26 01:05:26;;;;;;;;;;;;;;;;;;5028859;28;19921;-57
2022/09/26 01:07:52;;;;;;;;;;;;;;;;;;5029362;28;19913;-58
2022/09/26 01:10:18;;;;;;;;;;;;;;;;;;5029192;28;20291;-57
2022/09/26 01:12:43;;;;;;;;;;;;;;;;;;5031673;28;19913;-57
2022/09/26 01:15:09;;;;;;;;;;;;;;;;;;5024071;28;19920;-57
2022/09/26 01:17:36;;;;;;;;;;;;;;;;;;5030681;28;20414;-57
2022/09/26 01:20:04;;;;;;;;;;;;;;;;;;5030995;28;19913;-58
2022/09/26 01:22:35;;;;;;;;;;;;;;;;;;5029455;28;19920;-57
2022/09/26 01:25:00;;;;;;;;;;;;;;;;;;5030416;28;19972;-57
2022/09/26 01:27:44;;;;;;;;;;;;;;;;;;5030701;28;20014;-57
2022/09/26 01:30:10;;;;;;;;;;;;;;;;;;5033183;28;19913;-57
2022/09/26 01:32:54;;;;;;;;;;;;;;;;;;5029675;28;19913;-57
2022/09/26 01:35:33;;;;;;;;;;;;;;;;;;5029424;28;20255;-57
2022/09/26 01:38:04;;;;;;;;;;;;;;;;;;5030464;28;19913;-58
2022/09/26 01:40:42;;;;;;;;;;;;;;;;;;5029879;28;20303;-57
2022/09/26 01:43:15;;;;;;;;;;;;;;;;;;5029333;28;19939;-57
2022/09/26 01:45:49;;;;;;;;;;;;;;;;;;5028683;28;19964;-57
2022/09/26 01:48:18;;;;;;;;;;;;;;;;;;5029524;28;19912;-57
2022/09/26 01:50:56;;;;;;;;;;;;;;;;;;5044396;28;19920;-57
2022/09/26 01:53:27;;;;;;;;;;;;;;;;;;5029264;28;19951;-57
2022/09/26 01:56:15;;;;;;;;;;;;;;;;;;5029398;28;20290;-57
2022/09/26 01:58:49;;;;;;;;;;;;;;;;;;5017943;28;20378;-57
2022/09/26 02:01:16;;;;;;;;;;;;;;;;;;5030560;28;19919;-57
2022/09/26 02:03:43;;;;;;;;;;;;;;;;;;5028620;28;19917;-57
2022/09/26 02:06:13;;;;;;;;;;;;;;;;;;5032356;28;19923;-57
2022/09/26 02:08:58;;;;;;;;;;;;;;;;;;5028979;28;19913;-57
2022/09/26 02:11:24;;;;;;;;;;;;;;;;;;5027003;28;19995;-57
2022/09/26 02:14:04;;;;;;;;;;;;;;;;;;5028953;28;20031;-57
2022/09/26 02:16:32;;;;;;;;;;;;;;;;;;5028802;28;20312;-57
2022/09/26 02:19:18;;;;;;;;;;;;;;;;;;5033639;28;19913;-57
2022/09/26 02:21:44;;;;;;;;;;;;;;;;;;5031690;28;19920;-57
2022/09/26 02:24:09;;;;;;;;;;;;;;;;;;5029720;28;19932;-57
2022/09/26 02:26:34;;;;;;;;;;;;;;;;;;5028459;28;19924;-57
2022/09/26 02:29:00;;;;;;;;;;;;;;;;;;5028960;28;20386;-57
2022/09/26 02:31:28;;;;;;;;;;;;;;;;;;5029435;28;19983;-57
2022/09/26 02:33:53;;;;;;;;;;;;;;;;;;5029141;28;19920;-57
2022/09/26 02:36:19;;;;;;;;;;;;;;;;;;5034437;28;20259;-57
2022/09/26 02:38:45;;;;;;;;;;;;;;;;;;5031777;28;19916;-57
2022/09/26 02:41:12;;;;;;;;;;;;;;;;;;5029261;28;19986;-57
2022/09/26 02:43:46;;;;;;;;;;;;;;;;;;5030661;28;19920;-57
2022/09/26 02:46:30;;;;;;;;;;;;;;;;;;5024891;28;20313;-58
2022/09/26 02:49:12;;;;;;;;;;;;;;;;;;5029098;28;19919;-56
2022/09/26 02:51:40;;;;;;;;;;;;;;;;;;5023306;28;19913;-57
2022/09/26 02:54:11;;;;;;;;;;;;;;;;;;5031800;28;19913;-57
2022/09/26 02:56:39;;;;;;;;;;;;;;;;;;5031539;28;19913;-57
2022/09/26 02:59:04;;;;;;;;;;;;;;;;;;5039096;28;19913;-57
2022/09/26 03:01:30;;;;;;;;;;;;;;;;;;5033374;28;20532;-57
2022/09/26 03:04:05;;;;;;;;;;;;;;;;;;5033466;28;19952;-57
2022/09/26 03:06:36;;;;;;;;;;;;;;;;;;5035396;28;19924;-57
2022/09/26 03:09:02;;;;;;;;;;;;;;;;;;5030952;28;19913;-57
2022/09/26 03:11:28;;;;;;;;;;;;;;;;;;5033373;28;20417;-57
2022/09/26 03:13:55;;;;;;;;;;;;;;;;;;5035970;28;19991;-58
2022/09/26 03:16:21;;;;;;;;;;;;;;;;;;5036307;28;19970;-57
2022/09/26 03:18:50;;;;;;;;;;;;;;;;;;5033059;28;20337;-57
2022/09/26 03:21:16;;;;;;;;;;;;;;;;;;5032815;28;19913;-57
2022/09/26 03:23:41;;;;;;;;;;;;;;;;;;5031365;28;19932;-57
2022/09/26 03:26:10;;;;;;;;;;;;;;;;;;5032827;28;20394;-57
2022/09/26 03:28:36;;;;;;;;;;;;;;;;;;5037069;28;19913;-57
2022/09/26 03:31:01;;;;;;;;;;;;;;;;;;5031963;28;19919;-57
2022/09/26 03:33:26;;;;;;;;;;;;;;;;;;5032621;28;19917;-57
2022/09/26 03:35:52;;;;;;;;;;;;;;;;;;5032421;28;19920;-56
2022/09/26 03:38:17;;;;;;;;;;;;;;;;;;5033597;28;19920;-57
2022/09/26 03:40:43;;;;;;;;;;;;;;;;;;5030902;28;19928;-57
2022/09/26 03:43:08;;;;;;;;;;;;;;;;;;5036290;28;20386;-57
2022/09/26 03:45:37;;;;;;;;;;;;;;;;;;5031797;28;19917;-57
2022/09/26 03:48:02;;;;;;;;;;;;;;;;;;5032162;28;19936;-57
2022/09/26 03:50:28;;;;;;;;;;;;;;;;;;5034924;28;19913;-57
2022/09/26 03:52:53;;;;;;;;;;;;;;;;;;5031359;28;19952;-57
2022/09/26 03:55:18;;;;;;;;;;;;;;;;;;5031209;28;20263;-56
2022/09/26 03:57:44;;;;;;;;;;;;;;;;;;5031956;28;19945;-57
2022/09/26 04:00:09;;;;;;;;;;;;;;;;;;5032328;28;20290;-56
2022/09/26 04:02:35;;;;;;;;;;;;;;;;;;5031865;28;19915;-57
2022/09/26 04:05:02;;;;;;;;;;;;;;;;;;5032917;28;19968;-56
2022/09/26 04:07:27;;;;;;;;;;;;;;;;;;5030638;28;20002;-57
2022/09/26 04:09:52;;;;;;;;;;;;;;;;;;5035194;28;19964;-57
2022/09/26 04:12:19;;;;;;;;;;;;;;;;;;5032187;28;19919;-57
2022/09/26 04:14:44;;;;;;;;;;;;;;;;;;5033905;28;19913;-57
2022/09/26 04:17:09;;;;;;;;;;;;;;;;;;5031025;28;19920;-58
2022/09/26 04:19:34;;;;;;;;;;;;;;;;;;5031602;28;19967;-57
2022/09/26 04:22:00;;;;;;;;;;;;;;;;;;5030524;28;20439;-57
2022/09/26 04:24:25;;;;;;;;;;;;;;;;;;5031026;28;19912;-58
2022/09/26 04:26:51;;;;;;;;;;;;;;;;;;5028536;28;19919;-57
2022/09/26 04:29:16;;;;;;;;;;;;;;;;;;5028978;28;19912;-58
2022/09/26 04:31:41;;;;;;;;;;;;;;;;;;5029865;28;19916;-58
2022/09/26 04:34:07;;;;;;;;;;;;;;;;;;5034138;28;19913;-58
2022/09/26 04:36:33;;;;;;;;;;;;;;;;;;5031045;28;20008;-58
2022/09/26 04:38:59;;;;;;;;;;;;;;;;;;5031227;28;20015;-58
2022/09/26 04:41:26;;;;;;;;;;;;;;;;;;5031004;28;20374;-56
2022/09/26 04:43:52;;;;;;;;;;;;;;;;;;5031374;28;19919;-58
2022/09/26 04:46:21;;;;;;;;;;;;;;;;;;5030342;28;19917;-58
2022/09/26 04:48:47;;;;;;;;;;;;;;;;;;5030807;28;19963;-58
2022/09/26 04:51:13;;;;;;;;;;;;;;;;;;5030963;28;19912;-58
2022/09/26 04:53:39;;;;;;;;;;;;;;;;;;5033870;28;19920;-58
2022/09/26 04:56:05;;;;;;;;;;;;;;;;;;5030625;28;19919;-58
2022/09/26 04:58:31;;;;;;;;;;;;;;;;;;5031009;28;19939;-58
2022/09/26 05:01:00;;;;;;;;;;;;;;;;;;5036930;28;20370;-58
2022/09/26 05:03:27;;;;;;;;;;;;;;;;;;5028611;28;19921;-61
2022/09/26 05:05:53;;;;;;;;;;;;;;;;;;5030501;28;19916;-64
2022/09/26 05:08:18;;;;;;;;;;;;;;;;;;5032323;28;20444;-61
2022/09/26 05:10:50;;;;;;;;;;;;;;;;;;5030319;28;19920;-61
2022/09/26 05:13:15;;;;;;;;;;;;;;;;;;5030448;28;19974;-61
2022/09/26 05:15:41;;;;;;;;;;;;;;;;;;5027847;28;20298;-61
2022/09/26 05:18:07;;;;;;;;;;;;;;;;;;5031115;28;19913;-61
2022/09/26 05:20:33;;;;;;;;;;;;;;;;;;5030219;28;19913;-61
2022/09/26 05:22:59;;;;;;;;;;;;;;;;;;5030454;28;20011;-61
2022/09/26 05:28:09;;;;;;;;;;;;;;;;;;5026656;28;20004;-60
2022/09/26 05:30:35;;;;;;;;;;;;;;;;;;5027598;28;20341;-60
2022/09/26 05:33:00;;;;;;;;;;;;;;;;;;5028859;28;19912;-61
2022/09/26 05:35:26;;;;;;;;;;;;;;;;;;5030234;28;20012;-61
2022/09/26 05:38:01;;;;;;;;;;;;;;;;;;5030692;28;20291;-61
2022/09/26 05:43:10;;;;;;;;;;;;;;;;;;5025418;28;19920;-61
2022/09/26 05:45:36;;;;;;;;;;;;;;;;;;5028751;28;19921;-61
2022/09/26 05:48:02;;;;;;;;;;;;;;;;;;5030366;28;19932;-61
2022/09/26 05:50:27;;;;;;;;;;;;;;;;;;5027967;28;20383;-61
2022/09/26 05:52:55;;;;;;;;;;;;;;;;;;5027558;28;20375;-60
2022/09/26 05:55:20;;;;;;;;;;;;;;;;;;5029390;28;19944;-61
2022/09/26 05:57:53;;;;;;;;;;;;;;;;;;5031072;28;19917;-59
2022/09/26 06:00:18;;;;;;;;;;;;;;;;;;5030028;28;20367;-59
2022/09/26 06:02:43;;;;;;;;;;;;;;;;;;5027833;28;19923;-60
2022/09/26 06:05:12;;;;;;;;;;;;;;;;;;5031152;28;19921;-60
2022/09/26 06:07:37;;;;;;;;;;;;;;;;;;5030406;28;19922;-60
2022/09/26 06:10:05;;;;;;;;;;;;;;;;;;5029515;28;19921;-60
2022/09/26 06:12:30;;;;;;;;;;;;;;;;;;5031362;28;19916;-60
2022/09/26 06:14:56;;;;;;;;;;;;;;;;;;5030383;28;19920;-60
2022/09/26 06:17:22;;;;;;;;;;;;;;;;;;5029935;28;20192;-60
2022/09/26 06:19:48;;;;;;;;;;;;;;;;;;5036721;28;19912;-60
2022/09/26 06:22:13;;;;;;;;;;;;;;;;;;5027447;28;20027;-60
2022/09/26 06:24:38;;;;;;;;;;;;;;;;;;5027855;28;20340;-60
2022/09/26 06:27:03;;;;;;;;;;;;;;;;;;5033038;28;19913;-60
2022/09/26 06:29:29;;;;;;;;;;;;;;;;;;5025963;28;19920;-59
2022/09/26 06:31:54;;;;;;;;;;;;;;;;;;5024137;28;20486;-60
2022/09/26 06:34:19;;;;;;;;;;;;;;;;;;5027604;28;20372;-59
2022/09/26 06:36:45;;;;;;;;;;;;;;;;;;5030221;28;19913;-60
2022/09/26 06:39:11;;;;;;;;;;;;;;;;;;5026679;28;19913;-60
2022/09/26 06:41:36;;;;;;;;;;;;;;;;;;5026096;28;19917;-60
2022/09/26 06:44:01;;;;;;;;;;;;;;;;;;5025973;28;19920;-60
2022/09/26 06:46:27;;;;;;;;;;;;;;;;;;5029261;28;19916;-61
2022/09/26 06:48:53;;;;;;;;;;;;;;;;;;5028892;28;19925;-61
2022/09/26 06:51:18;;;;;;;;;;;;;;;;;;5028851;28;19919;-60
2022/09/26 06:53:44;;;;;;;;;;;;;;;;;;5019786;28;20394;-61
2022/09/26 06:56:10;;;;;;;;;;;;;;;;;;5023549;28;19917;-61
2022/09/26 06:58:36;;;;;;;;;;;;;;;;;;5027361;28;19939;-61
2022/09/26 07:01:01;;;;;;;;;;;;;;;;;;5027511;28;19952;-61
2022/09/26 07:03:27;;;;;;;;;;;;;;;;;;5029983;28;19967;-61
2022/09/26 07:05:55;;;;;;;;;;;;;;;;;;5028011;28;19917;-60
2022/09/26 07:08:21;;;;;;;;;;;;;;;;;;5032395;28;20011;-61
2022/09/26 07:10:47;;;;;;;;;;;;;;;;;;5028297;28;20457;-61
2022/09/26 07:13:14;;;;;;;;;;;;;;;;;;5030129;28;19913;-61
2022/09/26 07:15:42;;;;;;;;;;;;;;;;;;5026389;28;19948;-61
2022/09/26 07:18:08;;;;;;;;;;;;;;;;;;5028066;28;19932;-61
2022/09/26 07:20:36;;;;;;;;;;;;;;;;;;5029510;28;19935;-60
2022/09/26 07:23:02;;;;;;;;;;;;;;;;;;5026787;28;19920;-61
2022/09/26 07:25:30;;;;;;;;;;;;;;;;;;5027450;28;19956;-61
2022/09/26 07:27:55;;;;;;;;;;;;;;;;;;5026800;28;19913;-60
2022/09/26 07:30:20;;;;;;;;;;;;;;;;;;5026670;28;19967;-61
2022/09/26 07:32:46;;;;;;;;;;;;;;;;;;5026996;28;19925;-61
2022/09/26 07:35:12;;;;;;;;;;;;;;;;;;5031343;28;19999;-61
2022/09/26 07:37:37;;;;;;;;;;;;;;;;;;5027389;28;19924;-60
2022/09/26 07:40:04;;;;;;;;;;;;;;;;;;5024920;28;20314;-61
2022/09/26 07:42:30;;;;;;;;;;;;;;;;;;5029782;28;19982;-61
2022/09/26 07:44:55;;;;;;;;;;;;;;;;;;5030884;28;20336;-60
2022/09/26 07:50:11;;;;;;;;;;;;;;;;;;5028681;28;19971;-61
2022/09/26 07:52:37;;;;;;;;;;;;;;;;;;5030375;28;19913;-60
2022/09/26 07:55:02;;;;;;;;;;;;;;;;;;5030528;28;19913;-60
2022/09/26 07:57:31;;;;;;;;;;;;;;;;;;5032737;28;19917;-60
2022/09/26 07:59:57;;;;;;;;;;;;;;;;;;5030568;28;19919;-58
2022/09/26 08:02:23;;;;;;;;;;;;;;;;;;5032315;28;19920;-61
2022/09/26 08:04:48;;;;;;;;;;;;;;;;;;5033338;28;20294;-61
2022/09/26 08:07:14;;;;;;;;;;;;;;;;;;5031111;28;19913;-61
2022/09/26 08:09:40;;;;;;;;;;;;;;;;;;5032614;28;20246;-61
2022/09/26 08:12:05;;;;;;;;;;;;;;;;;;5028493;28;19913;-60
2022/09/26 08:14:30;;;;;;;;;;;;;;;;;;5030678;28;19920;-61
2022/09/26 08:16:55;;;;;;;;;;;;;;;;;;5032563;28;20358;-61
2022/09/26 08:19:21;;;;;;;;;;;;;;;;;;5031755;28;19920;-61
2022/09/26 08:21:47;;;;;;;;;;;;;;;;;;5030357;28;19921;-60
2022/09/26 08:24:13;;;;;;;;;;;;;;;;;;5033118;28;19913;-61
2022/09/26 08:26:39;;;;;;;;;;;;;;;;;;5034317;28;19917;-62
2022/09/26 08:29:08;;;;;;;;;;;;;;;;;;5030440;28;19920;-62
2022/09/26 08:31:33;;;;;;;;;;;;;;;;;;5033644;28;20423;-60
2022/09/26 08:33:59;;;;;;;;;;;;;;;;;;5030185;28;19924;-61
2022/09/26 08:36:24;;;;;;;;;;;;;;;;;;5040635;28;19913;-61
2022/09/26 08:38:49;;;;;;;;;;;;;;;;;;5029764;28;19975;-61
2022/09/26 08:41:24;;;;;;;;;;;;;;;;;;5030520;28;19948;-61
2022/09/26 08:43:56;;;;;;;;;;;;;;;;;;5028239;28;19913;-61
2022/09/26 08:46:54;;;;;;;;;;;;;;;;;;5028614;28;20374;-61
2022/09/26 08:49:29;;;;;;;;;;;;;;;;;;5032492;28;20004;-61
2022/09/26 08:51:58;;;;;;;;;;;;;;;;;;5031551;28;20020;-61
2022/09/26 08:54:23;;;;;;;;;;;;;;;;;;5028245;28;19924;-61
2022/09/26 08:56:51;;;;;;;;;;;;;;;;;;5031124;28;19914;-61
2022/09/26 08:59:39;;;;;;;;;;;;;;;;;;5032654;28;19920;-61
2022/09/26 09:02:10;;;;;;;;;;;;;;;;;;5029087;28;20346;-61
2022/09/26 09:04:43;;;;;;;;;;;;;;;;;;5031664;28;20006;-61
2022/09/26 09:07:21;;;;;;;;;;;;;;;;;;5032558;28;19913;-61
2022/09/26 09:09:46;;;;;;;;;;;;;;;;;;5027834;28;19913;-61
2022/09/26 09:12:16;;;;;;;;;;;;;;;;;;5031341;28;19916;-61
2022/09/26 09:14:41;;;;;;;;;;;;;;;;;;5032691;28;19920;-61
2022/09/26 09:17:12;;;;;;;;;;;;;;;;;;5030724;28;19909;-61
2022/09/26 09:19:56;;;;;;;;;;;;;;;;;;5043597;28;19921;-62
2022/09/26 09:22:27;;;;;;;;;;;;;;;;;;5030780;28;20007;-61
2022/09/26 09:25:03;;;;;;;;;;;;;;;;;;5031337;28;19924;-61
2022/09/26 09:27:31;;;;;;;;;;;;;;;;;;5032418;28;19915;-61
2022/09/26 09:30:09;;;;;;;;;;;;;;;;;;5028977;28;19920;-61
2022/09/26 09:32:43;;;;;;;;;;;;;;;;;;5028749;28;19917;-61
2022/09/26 09:35:13;;;;;;;;;;;;;;;;;;5030035;28;19912;-61
2022/09/26 09:37:42;;;;;;;;;;;;;;;;;;5028825;28;20023;-59
2022/09/26 09:40:11;;;;;;;;;;;;;;;;;;5029631;28;19913;-61
2022/09/26 09:42:37;;;;;;;;;;;;;;;;;;5029111;28;19947;-60
2022/09/26 09:45:11;;;;;;;;;;;;;;;;;;5030707;28;20012;-61
2022/09/26 09:47:37;;;;;;;;;;;;;;;;;;5029232;28;19913;-61
2022/09/26 09:50:10;;;;;;;;;;;;;;;;;;5029125;28;19917;-61
2022/09/26 09:52:37;;;;;;;;;;;;;;;;;;5029156;28;19935;-61
2022/09/26 09:55:11;;;;;;;;;;;;;;;;;;5027821;28;20010;-60
2022/09/26 09:57:49;;;;;;;;;;;;;;;;;;5029078;28;19958;-60
2022/09/26 10:00:22;;;;;;;;;;;;;;;;;;5030567;28;19913;-61
2022/09/26 10:03:00;;;;;;;;;;;;;;;;;;5030116;28;20577;-61
2022/09/26 10:05:34;;;;;;;;;;;;;;;;;;5030552;28;19917;-60
2022/09/26 10:07:59;;;;;;;;;;;;;;;;;;5028846;28;19913;-61
2022/09/26 10:10:36;;;;;;;;;;;;;;;;;;5029933;28;19924;-61
2022/09/26 10:13:02;;;;;;;;;;;;;;;;;;5033025;28;19913;-61
2022/09/26 10:15:28;;;;;;;;;;;;;;;;;;5029026;28;20393;-61
2022/09/26 10:18:04;;;;;;;;;;;;;;;;;;5030384;28;19952;-61
2022/09/26 10:20:34;;;;;;;;;;;;;;;;;;5024904;28;19916;-61
2022/09/26 10:23:00;;;;;;;;;;;;;;;;;;5031467;28;20286;-60
2022/09/26 10:25:25;;;;;;;;;;;;;;;;;;5030100;28;19921;-61
2022/09/26 10:27:54;;;;;;;;;;;;;;;;;;5027490;28;19982;-61
2022/09/26 10:30:29;;;;;;;;;;;;;;;;;;5024377;28;20065;-60
2022/09/26 10:32:56;;;;;;;;;;;;;;;;;;5027597;28;20355;-61
2022/09/26 10:35:41;;;;;;;;;;;;;;;;;;5027759;28;19967;-60
2022/09/26 10:38:17;;;;;;;;;;;;;;;;;;5028983;28;19913;-59
2022/09/26 10:40:49;;;;;;;;;;;;;;;;;;5025139;28;19913;-61
2022/09/26 10:43:19;;;;;;;;;;;;;;;;;;5029302;28;19913;-61
2022/09/26 10:45:45;;;;;;;;;;;;;;;;;;5030455;28;19947;-61
2022/09/26 10:48:11;;;;;;;;;;;;;;;;;;5029288;28;19913;-61
2022/09/26 10:50:38;;;;;;;;;;;;;;;;;;5031876;28;19919;-61
2022/09/26 10:53:07;;;;;;;;;;;;;;;;;;5028459;28;19964;-61
2022/09/26 10:55:38;;;;;;;;;;;;;;;;;;5029682;28;19913;-61
2022/09/26 10:58:07;;;;;;;;;;;;;;;;;;5028339;28;19924;-61
2022/09/26 11:00:32;;;;;;;;;;;;;;;;;;5027493;28;19948;-61
2022/09/26 11:02:57;;;;;;;;;;;;;;;;;;5029652;28;19991;-61
2022/09/26 11:08:11;;;;;;;;;;;;;;;;;;5030895;28;19924;-61
2022/09/26 11:10:40;;;;;;;;;;;;;;;;;;5026225;28;19919;-60
2022/09/26 11:13:17;;;;;;;;;;;;;;;;;;5026102;28;19956;-60
2022/09/26 11:16:02;;;;;;;;;;;;;;;;;;5026249;28;19986;-60
2022/09/26 11:18:43;;;;;;;;;;;;;;;;;;5031045;28;19913;-60
2022/09/26 11:21:21;;;;;;;;;;;;;;;;;;5036284;28;19920;-60
2022/09/26 11:23:56;;;;;;;;;;;;;;;;;;5032514;28;20396;-60
2022/09/26 11:26:34;;;;;;;;;;;;;;;;;;5031509;28;20032;-59
2022/09/26 11:29:08;;;;;;;;;;;;;;;;;;5035875;28;20366;-60
2022/09/26 11:31:35;;;;;;;;;;;;;;;;;;5033426;28;20271;-60
2022/09/26 11:34:02;;;;;;;;;;;;;;;;;;5031930;28;19936;-60
2022/09/26 11:36:31;;;;;;;;;;;;;;;;;;5030245;28;19917;-60
2022/09/26 11:39:01;;;;;;;;;;;;;;;;;;5031205;28;20503;-60
2022/09/26 11:41:42;;;;;;;;;;;;;;;;;;5032887;28;19913;-60
2022/09/26 11:44:20;;;;;;;;;;;;;;;;;;5034346;28;19920;-60
2022/09/26 11:46:51;;;;;;;;;;;;;;;;;;5030706;28;19924;-61
2022/09/26 11:49:16;;;;;;;;;;;;;;;;;;5032384;28;19913;-60
2022/09/26 11:51:42;;;;;;;;;;;;;;;;;;5031318;28;20004;-60
2022/09/26 11:54:08;;;;;;;;;;;;;;;;;;5030507;28;19989;-60
2022/09/26 11:56:37;;;;;;;;;;;;;;;;;;5031271;28;19913;-60
2022/09/26 11:59:20;;;;;;;;;;;;;;;;;;5033595;28;19952;-61
2022/09/26 12:01:54;;;;;;;;;;;;;;;;;;5029699;28;20379;-62
2022/09/26 12:04:20;;;;;;;;;;;;;;;;;;5034460;28;20383;-61
2022/09/26 12:07:01;;;;;;;;;;;;;;;;;;5033322;28;20000;-61
2022/09/26 12:09:38;;;;;;;;;;;;;;;;;;5032352;28;19913;-60
2022/09/26 12:12:15;;;;;;;;;;;;;;;;;;5028492;28;19923;-60
2022/09/26 12:14:47;;;;;;;;;;;;;;;;;;5027853;28;20378;-60
2022/09/26 12:17:19;;;;;;;;;;;;;;;;;;5029156;28;19913;-59
2022/09/26 12:19:59;;;;;;;;;;;;;;;;;;5031467;28;19927;-60
2022/09/26 12:22:38;;;;;;;;;;;;;;;;;;5028522;28;19948;-61
2022/09/26 12:25:22;;;;;;;;;;;;;;;;;;5025106;28;19932;-61
2022/09/26 12:28:09;;;;;;;;;;;;;;;;;;5027767;28;19913;-62
2022/09/26 12:30:43;;;;;;;;;;;;;;;;;;5027502;28;19913;-63
2022/09/26 12:33:11;;;;;;;;;;;;;;;;;;5027451;28;20245;-61
2022/09/26 12:35:54;;;;;;;;;;;;;;;;;;5030349;28;20016;-61
2022/09/26 12:38:38;;;;;;;;;;;;;;;;;;5029657;28;19998;-60
2022/09/26 12:41:16;;;;;;;;;;;;;;;;;;5028787;28;19928;-60
2022/09/26 12:43:53;;;;;;;;;;;;;;;;;;5029796;28;19913;-59
2022/09/26 12:46:26;;;;;;;;;;;;;;;;;;5027140;28;19943;-60
2022/09/26 12:48:54;;;;;;;;;;;;;;;;;;5028530;28;19913;-60
2022/09/26 12:51:22;;;;;;;;;;;;;;;;;;5029090;28;20015;-59
2022/09/26 12:54:06;;;;;;;;;;;;;;;;;;5029301;28;19964;-60
2022/09/26 12:56:37;;;;;;;;;;;;;;;;;;5030653;28;19958;-60
2022/09/26 12:59:03;;;;;;;;;;;;;;;;;;5030725;28;20237;-60
2022/09/26 13:01:42;;;;;;;;;;;;;;;;;;5045796;28;19920;-59
2022/09/26 13:04:13;;;;;;;;;;;;;;;;;;5029978;28;19913;-60
2022/09/26 13:06:57;;;;;;;;;;;;;;;;;;5027714;28;19917;-59
2022/09/26 13:09:25;;;;;;;;;;;;;;;;;;5029463;28;19964;-60
2022/09/26 13:11:51;;;;;;;;;;;;;;;;;;5026073;28;19948;-60
2022/09/26 13:14:35;;;;;;;;;;;;;;;;;;5028493;28;19959;-60
2022/09/26 13:17:12;;;;;;;;;;;;;;;;;;5032876;28;19967;-60
2022/09/26 13:19:50;;;;;;;;;;;;;;;;;;5028515;28;20252;-60
2022/09/26 13:22:26;;;;;;;;;;;;;;;;;;5028318;28;19913;-60
2022/09/26 13:25:17;;;;;;;;;;;;;;;;;;5029331;28;19920;-60
2022/09/26 13:27:53;;;;;;;;;;;;;;;;;;5011212;28;20034;-60
2022/09/26 13:30:28;;;;;;;;;;;;;;;;;;5028122;28;19916;-59
2022/09/26 13:33:13;;;;;;;;;;;;;;;;;;5026929;28;19938;-60
2022/09/26 13:35:42;;;;;;;;;;;;;;;;;;5028766;28;19958;-60
2022/09/26 13:38:14;;;;;;;;;;;;;;;;;;5028967;28;19920;-60
2022/09/26 13:40:42;;;;;;;;;;;;;;;;;;5029249;28;19921;-60
2022/09/26 13:43:13;;;;;;;;;;;;;;;;;;5026895;28;19967;-60
2022/09/26 13:45:51;;;;;;;;;;;;;;;;;;5025776;28;20011;-59
2022/09/26 13:48:32;;;;;;;;;;;;;;;;;;5028130;28;19921;-59
2022/09/26 13:51:06;;;;;;;;;;;;;;;;;;5027349;28;19921;-59
2022/09/26 13:53:41;;;;;;;;;;;;;;;;;;5024500;28;20353;-59
2022/09/26 13:56:28;;;;;;;;;;;;;;;;;;5030588;28;19947;-59
2022/09/26 13:59:03;;;;;;;;;;;;;;;;;;5030059;28;19913;-60
2022/09/26 14:01:29;;;;;;;;;;;;;;;;;;5022665;28;19967;-59
2022/09/26 14:04:13;;;;;;;;;;;;;;;;;;5024154;28;19956;-59
2022/09/26 14:06:58;;;;;;;;;;;;;;;;;;5023433;28;20291;-59
2022/09/26 14:09:37;;;;;;;;;;;;;;;;;;5026582;28;20371;-60
2022/09/26 14:12:17;;;;;;;;;;;;;;;;;;5026674;28;19970;-59
2022/09/26 14:14:49;;;;;;;;;;;;;;;;;;5025043;28;19916;-60
2022/09/26 14:17:33;;;;;;;;;;;;;;;;;;5026059;28;19919;-60
2022/09/26 14:20:00;;;;;;;;;;;;;;;;;;5028847;28;19920;-60
2022/09/26 14:22:33;;;;;;;;;;;;;;;;;;5026429;28;19917;-60
2022/09/26 14:25:00;;;;;;;;;;;;;;;;;;5027042;28;19917;-60
2022/09/26 14:27:26;;;;;;;;;;;;;;;;;;5028769;28;20417;-60
2022/09/26 14:29:58;;;;;;;;;;;;;;;;;;5027786;28;19937;-59
2022/09/26 14:32:26;;;;;;;;;;;;;;;;;;5024106;28;19971;-59
2022/09/26 14:34:54;;;;;;;;;;;;;;;;;;5025792;28;19963;-59
2022/09/26 14:37:25;;;;;;;;;;;;;;;;;;5025904;28;19913;-60
2022/09/26 14:39:50;;;;;;;;;;;;;;;;;;5023148;28;19913;-60
2022/09/26 14:42:18;;;;;;;;;;;;;;;;;;5026517;28;19919;-59
2022/09/26 14:45:05;;;;;;;;;;;;;;;;;;5026462;28;20451;-60
2022/09/26 14:47:39;;;;;;;;;;;;;;;;;;5027109;28;19917;-60
2022/09/26 14:50:05;;;;;;;;;;;;;;;;;;5026619;28;19917;-60
2022/09/26 14:52:31;;;;;;;;;;;;;;;;;;5028090;28;19913;-60
2022/09/26 14:55:00;;;;;;;;;;;;;;;;;;5030842;28;19943;-59
2022/09/26 14:57:27;;;;;;;;;;;;;;;;;;5031113;28;20066;-59
2022/09/26 14:59:53;;;;;;;;;;;;;;;;;;5030475;28;19920;-60
2022/09/26 15:02:24;;;;;;;;;;;;;;;;;;5031956;28;19946;-60
2022/09/26 15:05:10;;;;;;;;;;;;;;;;;;5030927;28;20184;-60
2022/09/26 15:07:46;;;;;;;;;;;;;;;;;;5030155;28;20264;-59
2022/09/26 15:10:12;;;;;;;;;;;;;;;;;;5030846;28;20035;-61
2022/09/26 15:12:43;;;;;;;;;;;;;;;;;;5030774;28;20003;-62
2022/09/26 15:15:09;;;;;;;;;;;;;;;;;;5029706;28;19913;-62
2022/09/26 15:17:37;;;;;;;;;;;;;;;;;;5029783;28;19928;-63
2022/09/26 15:20:05;;;;;;;;;;;;;;;;;;5033050;28;20291;-63
2022/09/26 15:22:30;;;;;;;;;;;;;;;;;;5031897;28;19912;-63
2022/09/26 15:25:08;;;;;;;;;;;;;;;;;;5035450;28;20214;-63
2022/09/26 15:27:34;;;;;;;;;;;;;;;;;;5029941;28;19939;-61
2022/09/26 15:30:05;;;;;;;;;;;;;;;;;;5027648;28;20016;-62
2022/09/26 15:32:31;;;;;;;;;;;;;;;;;;5029772;28;20291;-62
2022/09/26 15:34:58;;;;;;;;;;;;;;;;;;5032106;28;19920;-62
2022/09/26 15:37:24;;;;;;;;;;;;;;;;;;5031095;28;20371;-62
2022/09/26 15:39:49;;;;;;;;;;;;;;;;;;5033299;28;19919;-61
2022/09/26 15:45:15;;;;;;;;;;;;;;;;;;5031505;28;20355;-61
2022/09/26 15:47:41;;;;;;;;;;;;;;;;;;5031259;28;20033;-61
2022/09/26 15:50:11;;;;;;;;;;;;;;;;;;5031060;28;20356;-61
2022/09/26 15:52:39;;;;;;;;;;;;;;;;;;5033870;28;19913;-60
2022/09/26 15:55:04;;;;;;;;;;;;;;;;;;5032194;28;20390;-60
2022/09/26 15:57:30;;;;;;;;;;;;;;;;;;5031071;28;19958;-60
2022/09/26 15:59:57;;;;;;;;;;;;;;;;;;5032134;28;19913;-60
2022/09/26 16:02:27;;;;;;;;;;;;;;;;;;5035980;28;20271;-60
2022/09/26 16:04:53;;;;;;;;;;;;;;;;;;5035487;28;19920;-59
2022/09/26 16:07:22;;;;;;;;;;;;;;;;;;5035851;28;19909;-60
2022/09/26 16:09:49;;;;;;;;;;;;;;;;;;5034610;28;20022;-60
2022/09/26 16:12:14;;;;;;;;;;;;;;;;;;5028631;28;19917;-60
2022/09/26 16:14:59;;;;;;;;;;;;;;;;;;5032410;28;19909;-59
2022/09/26 16:17:31;;;;;;;;;;;;;;;;;;5031799;28;19917;-62
2022/09/26 16:19:57;;;;;;;;;;;;;;;;;;5031391;28;20172;-59
2022/09/26 16:22:35;;;;;;;;;;;;;;;;;;5032293;28;19935;-59
2022/09/26 16:25:18;;;;;;;;;;;;;;;;;;5033457;28;19919;-59
2022/09/26 16:27:44;;;;;;;;;;;;;;;;;;5029501;28;19924;-59
2022/09/26 16:30:36;;;;;;;;;;;;;;;;;;5030998;28;19916;-60
2022/09/26 16:33:01;;;;;;;;;;;;;;;;;;5018038;28;19913;-60
2022/09/26 16:35:28;;;;;;;;;;;;;;;;;;5034482;28;19909;-59
2022/09/26 16:38:04;;;;;;;;;;;;;;;;;;5034615;28;19913;-59
2022/09/26 16:40:31;;;;;;;;;;;;;;;;;;5029836;28;20429;-61
2022/09/26 16:43:03;;;;;;;;;;;;;;;;;;5032969;28;19935;-60
2022/09/26 16:45:28;;;;;;;;;;;;;;;;;;5033235;28;20091;-60
2022/09/26 16:47:54;;;;;;;;;;;;;;;;;;5033310;28;20461;-60
2022/09/26 16:50:32;;;;;;;;;;;;;;;;;;5033578;28;20325;-60
2022/09/26 16:52:58;;;;;;;;;;;;;;;;;;5030834;28;20340;-59
2022/09/26 16:55:24;;;;;;;;;;;;;;;;;;5029989;28;19916;-60
2022/09/26 16:57:55;;;;;;;;;;;;;;;;;;5030100;28;20287;-60
2022/09/26 17:03:18;;;;;;;;;;;;;;;;;;5032176;28;20018;-61
2022/09/26 17:05:43;;;;;;;;;;;;;;;;;;5029404;28;20084;-60
2022/09/26 17:08:09;;;;;;;;;;;;;;;;;;5033978;28;20008;-59
2022/09/26 17:10:36;;;;;;;;;;;;;;;;;;5030951;28;20395;-59
2022/09/26 17:13:01;;;;;;;;;;;;;;;;;;5035501;28;19924;-59
2022/09/26 17:15:28;;;;;;;;;;;;;;;;;;5024833;28;19913;-59
2022/09/26 17:17:53;;;;;;;;;;;;;;;;;;5027735;28;19921;-59
2022/09/26 17:20:19;;;;;;;;;;;;;;;;;;5027241;28;19920;-60